createdAt,value
2022-11-05T00:00:20.240Z,1.00
2022-11-05T00:03:03.275Z,1.00
2022-11-05T00:05:49.813Z,1.00
2022-11-05T00:08:32.731Z,1.00
2022-11-05T00:11:03.031Z,1.00
2022-11-05T00:13:46.358Z,1.00
2022-11-05T00:16:35.256Z,1.00
2022-11-05T00:19:13.625Z,1.00
2022-11-05T00:22:07.308Z,1.00
2022-11-05T00:24:49.813Z,1.00
2022-11-05T00:27:20.789Z,1.00
2022-11-05T00:29:51.013Z,1.00
2022-11-05T00:32:21.023Z,1.00
2022-11-05T00:34:53.235Z,1.00
2022-11-05T00:37:26.763Z,1.00
2022-11-05T00:39:56.788Z,1.00
2022-11-05T00:42:39.955Z,1.00
2022-11-05T00:45:10.988Z,1.00
2022-11-05T00:47:55.548Z,1.00
2022-11-05T00:50:25.979Z,1.00
2022-11-05T00:53:00.975Z,1.00
2022-11-05T00:55:34.793Z,1.00
2022-11-05T00:58:10.423Z,1.00
2022-11-05T01:00:43.059Z,1.00
2022-11-05T01:03:15.665Z,1.00
2022-11-05T01:05:52.510Z,1.00
2022-11-05T01:08:27.955Z,1.00
2022-11-05T01:10:59.870Z,1.00
2022-11-05T01:13:33.425Z,1.00
2022-11-05T01:16:09.388Z,1.00
2022-11-05T01:18:42.121Z,1.00
2022-11-05T01:21:16.466Z,1.00
2022-11-05T01:23:50.809Z,1.00
2022-11-05T01:26:20.713Z,1.00
2022-11-05T01:28:55.416Z,1.00
2022-11-05T01:31:29.017Z,1.00
2022-11-05T01:33:59.212Z,1.00
2022-11-05T01:36:29.783Z,1.00
2022-11-05T01:39:02.288Z,1.00
2022-11-05T01:41:33.838Z,1.00
2022-11-05T01:44:04.112Z,1.00
2022-11-05T01:49:50.458Z,1.00
2022-11-05T01:52:21.025Z,1.00
2022-11-05T01:54:54.137Z,1.00
2022-11-05T01:57:24.369Z,1.00
2022-11-05T01:59:59.570Z,1.00
2022-11-05T02:02:30.461Z,1.00
2022-11-05T02:07:50.037Z,1.00
2022-11-05T02:10:23.602Z,1.00
2022-11-05T02:12:53.854Z,1.00
2022-11-05T02:15:30.155Z,1.00
2022-11-05T02:18:14.205Z,1.00
2022-11-05T02:20:55.947Z,1.00
2022-11-05T02:23:49.904Z,1.00
2022-11-05T02:26:49.994Z,1.00
2022-11-05T02:30:00.043Z,1.00
2022-11-05T02:32:54.161Z,1.00
2022-11-05T02:35:47.517Z,1.00
2022-11-05T02:38:27.853Z,1.00
2022-11-05T02:41:05.990Z,1.00
2022-11-05T02:43:48.443Z,1.00
2022-11-05T02:46:31.598Z,1.00
2022-11-05T02:49:11.578Z,1.00
2022-11-05T02:51:49.594Z,1.00
2022-11-05T02:54:26.342Z,1.00
2022-11-05T02:56:58.914Z,1.00
2022-11-05T02:59:29.296Z,1.00
2022-11-05T03:02:01.119Z,1.00
2022-11-05T03:04:35.419Z,1.00
2022-11-05T03:07:19.789Z,1.00
2022-11-05T03:10:07.258Z,1.00
2022-11-05T03:12:47.576Z,1.00
2022-11-05T03:15:25.127Z,1.00
2022-11-05T03:18:05.819Z,1.00
2022-11-05T03:20:43.245Z,1.00
2022-11-05T03:23:21.253Z,1.00
2022-11-05T03:25:54.345Z,1.00
2022-11-05T03:28:28.785Z,1.00
2022-11-05T03:31:01.751Z,1.00
2022-11-05T03:33:36.473Z,1.00
2022-11-05T03:36:16.199Z,1.00
2022-11-05T03:38:52.021Z,1.00
2022-11-05T03:41:24.237Z,1.00
2022-11-05T03:44:00.470Z,1.00
2022-11-05T03:46:33.253Z,1.00
2022-11-05T03:49:06.999Z,1.00
2022-11-05T03:51:47.903Z,1.00
2022-11-05T03:54:18.844Z,1.00
2022-11-05T03:56:58.843Z,1.00
2022-11-05T03:59:30.321Z,1.00
2022-11-05T04:02:00.875Z,1.00
2022-11-05T04:04:30.764Z,1.00
2022-11-05T04:07:16.322Z,1.00
2022-11-05T04:09:58.706Z,1.00
2022-11-05T04:12:41.853Z,1.00
2022-11-05T04:15:12.049Z,1.00
2022-11-05T04:17:40.255Z,1.00
2022-11-05T04:20:23.581Z,1.00
2022-11-05T04:23:14.047Z,1.00
2022-11-05T04:25:43.865Z,1.00
2022-11-05T04:28:14.414Z,1.00
2022-11-05T04:30:44.261Z,1.00
2022-11-05T04:33:17.002Z,1.00
2022-11-05T04:35:48.440Z,1.00
2022-11-05T04:38:22.896Z,1.00
2022-11-05T04:40:52.705Z,1.00
2022-11-05T04:43:24.247Z,1.00
2022-11-05T04:45:54.338Z,1.00
2022-11-05T04:48:24.771Z,1.00
2022-11-05T04:50:55.081Z,1.00
2022-11-05T04:53:28.500Z,1.00
2022-11-05T04:55:58.475Z,1.00
2022-11-05T04:58:29.019Z,1.00
2022-11-05T05:00:58.887Z,1.00
2022-11-05T05:03:29.841Z,1.00
2022-11-05T05:06:03.954Z,1.00
2022-11-05T05:08:37.689Z,1.00
2022-11-05T05:11:09.726Z,1.00
2022-11-05T05:13:40.537Z,1.00
2022-11-05T05:16:11.955Z,1.00
2022-11-05T05:18:46.071Z,1.00
2022-11-05T05:21:29.930Z,1.00
2022-11-05T05:24:02.739Z,1.00
2022-11-05T05:26:33.406Z,1.00
2022-11-05T05:29:03.591Z,1.00
2022-11-05T05:31:33.529Z,1.00
2022-11-05T05:34:03.416Z,1.00
2022-11-05T05:36:34.831Z,1.00
2022-11-05T05:39:08.205Z,1.00
2022-11-05T05:41:38.010Z,1.00
2022-11-05T05:44:12.016Z,1.00
2022-11-05T05:46:41.886Z,1.00
2022-11-05T05:49:14.448Z,1.00
2022-11-05T05:51:44.282Z,1.00
2022-11-05T05:54:17.722Z,1.00
2022-11-05T05:56:48.678Z,1.00
2022-11-05T05:59:18.563Z,1.00
2022-11-05T06:01:49.176Z,1.00
2022-11-05T06:04:19.475Z,1.00
2022-11-05T06:06:49.582Z,1.00
2022-11-05T06:09:22.207Z,1.00
2022-11-05T06:11:52.370Z,1.00
2022-11-05T06:14:22.274Z,1.00
2022-11-05T06:16:52.711Z,1.00
2022-11-05T06:19:22.580Z,1.00
2022-11-05T06:21:53.262Z,1.00
2022-11-05T06:24:26.250Z,1.00
2022-11-05T06:26:56.863Z,1.00
2022-11-05T06:29:26.773Z,1.00
2022-11-05T06:31:57.638Z,1.00
2022-11-05T06:34:27.833Z,1.00
2022-11-05T06:36:58.491Z,1.00
2022-11-05T06:39:31.215Z,1.00
2022-11-05T06:42:17.795Z,1.00
2022-11-05T06:44:48.607Z,1.00
2022-11-05T06:47:19.282Z,1.00
2022-11-05T06:49:49.754Z,1.00
2022-11-05T06:52:20.883Z,1.00
2022-11-05T06:54:53.664Z,1.00
2022-11-05T06:57:23.759Z,1.00
2022-11-05T06:59:59.969Z,1.00
2022-11-05T07:02:31.609Z,1.00
2022-11-05T07:05:03.245Z,1.00
2022-11-05T07:07:34.550Z,1.00
2022-11-05T07:10:07.702Z,1.00
2022-11-05T07:12:37.804Z,3.40
2022-11-05T07:15:09.204Z,7.60
2022-11-05T07:17:39.251Z,10.30
2022-11-05T07:20:11.458Z,16.40
2022-11-05T07:22:41.784Z,21.20
2022-11-05T07:25:15.223Z,30.50
2022-11-05T07:27:45.639Z,51.50
2022-11-05T07:30:15.801Z,99.90
2022-11-05T07:32:46.290Z,99.90
2022-11-05T07:35:16.394Z,99.90
2022-11-05T07:37:47.043Z,99.90
2022-11-05T07:40:21.350Z,99.90
2022-11-05T07:42:53.810Z,99.90
2022-11-05T07:45:24.439Z,99.90
2022-11-05T07:47:56.004Z,99.90
2022-11-05T07:50:30.248Z,99.90
2022-11-05T07:53:04.210Z,99.90
2022-11-05T07:55:37.160Z,99.90
2022-11-05T07:58:07.958Z,99.90
2022-11-05T08:00:38.135Z,99.90
2022-11-05T08:03:10.454Z,99.90
2022-11-05T08:05:44.563Z,99.90
2022-11-05T08:08:18.093Z,99.90
2022-11-05T08:10:50.768Z,99.90
2022-11-05T08:13:21.880Z,99.90
2022-11-05T08:15:51.800Z,99.90
2022-11-05T08:18:22.605Z,99.90
2022-11-05T08:20:52.752Z,99.90
2022-11-05T08:23:23.317Z,99.90
2022-11-05T08:25:56.278Z,99.90
2022-11-05T08:28:27.466Z,99.90
2022-11-05T08:30:59.112Z,99.90
2022-11-05T08:33:31.876Z,99.90
2022-11-05T08:36:05.603Z,99.90
2022-11-05T08:38:36.029Z,99.90
2022-11-05T08:41:08.941Z,99.90
2022-11-05T08:43:39.637Z,99.90
2022-11-05T08:46:09.585Z,99.90
2022-11-05T08:48:39.622Z,99.90
2022-11-05T08:51:09.633Z,99.90
2022-11-05T08:53:39.713Z,99.90
2022-11-05T08:56:12.360Z,99.90
2022-11-05T08:58:42.656Z,99.90
2022-11-05T09:01:12.612Z,99.90
2022-11-05T09:03:43.005Z,99.90
2022-11-05T09:06:13.051Z,99.90
2022-11-05T09:08:43.226Z,99.90
2022-11-05T09:11:16.606Z,99.90
2022-11-05T09:13:46.872Z,99.90
2022-11-05T09:16:22.228Z,99.90
2022-11-05T09:18:53.233Z,99.90
2022-11-05T09:21:23.524Z,99.90
2022-11-05T09:23:53.699Z,99.90
2022-11-05T09:26:26.261Z,99.90
2022-11-05T09:28:56.974Z,99.90
2022-11-05T09:31:26.968Z,99.90
2022-11-05T09:33:56.943Z,99.90
2022-11-05T09:36:26.912Z,99.90
2022-11-05T09:38:57.154Z,99.90
2022-11-05T09:41:33.274Z,99.90
2022-11-05T09:44:08.385Z,99.90
2022-11-05T09:46:44.475Z,99.90
2022-11-05T09:49:25.723Z,99.90
2022-11-05T09:51:57.155Z,99.90
2022-11-05T09:54:31.835Z,99.90
2022-11-05T09:57:06.099Z,99.90
2022-11-05T09:59:41.565Z,99.90
2022-11-05T10:02:16.593Z,99.90
2022-11-05T10:04:50.682Z,99.90
2022-11-05T10:07:27.731Z,99.90
2022-11-05T10:10:02.317Z,99.90
2022-11-05T10:12:40.131Z,99.90
2022-11-05T10:15:16.675Z,99.90
2022-11-05T10:17:51.897Z,99.90
2022-11-05T10:20:27.350Z,99.90
2022-11-05T10:23:01.627Z,99.90
2022-11-05T10:25:35.824Z,99.90
2022-11-05T10:28:10.686Z,99.90
2022-11-05T10:30:40.864Z,99.90
2022-11-05T10:33:14.793Z,99.90
2022-11-05T10:35:57.674Z,99.90
2022-11-05T10:38:27.949Z,99.90
2022-11-05T10:41:06.364Z,99.90
2022-11-05T10:43:44.506Z,99.90
2022-11-05T10:46:28.608Z,99.90
2022-11-05T10:49:20.436Z,99.90
2022-11-05T10:51:58.967Z,99.90
2022-11-05T10:54:36.438Z,99.90
2022-11-05T10:57:43.650Z,99.90
2022-11-05T11:00:29.209Z,99.90
2022-11-05T11:03:01.912Z,99.90
2022-11-05T11:05:34.269Z,99.90
2022-11-05T11:08:19.669Z,99.90
2022-11-05T11:10:53.195Z,97.50
2022-11-05T11:13:27.614Z,89.50
2022-11-05T11:16:15.856Z,69.90
2022-11-05T11:18:46.737Z,47.50
2022-11-05T11:21:19.696Z,39.10
2022-11-05T11:23:59.126Z,1.00
2022-11-05T11:26:31.519Z,1.00
2022-11-05T11:29:09.405Z,1.00
2022-11-05T11:31:42.233Z,1.00
2022-11-05T11:34:19.966Z,1.00
2022-11-05T11:36:51.706Z,1.00
2022-11-05T11:39:25.583Z,1.00
2022-11-05T11:41:57.781Z,1.00
2022-11-05T11:44:33.218Z,1.00
2022-11-05T11:47:07.779Z,1.00
2022-11-05T11:49:45.492Z,1.00
2022-11-05T11:52:19.772Z,1.00
2022-11-05T11:54:49.839Z,1.00
2022-11-05T11:57:25.361Z,1.00
2022-11-05T12:00:09.161Z,1.00
2022-11-05T12:03:02.642Z,1.00
2022-11-05T12:05:46.449Z,1.00
2022-11-05T12:08:32.545Z,1.00
2022-11-05T12:11:09.423Z,1.00
2022-11-05T12:14:04.554Z,1.00
2022-11-05T12:17:07.602Z,1.00
2022-11-05T12:20:25.081Z,99.90
2022-11-05T12:23:24.696Z,99.90
2022-11-05T12:25:59.855Z,99.90
2022-11-05T12:29:17.751Z,99.90
2022-11-05T12:31:57.876Z,99.90
2022-11-05T12:34:41.626Z,99.90
2022-11-05T12:37:23.268Z,99.90
2022-11-05T12:40:20.881Z,99.90
2022-11-05T12:43:10.611Z,99.90
2022-11-05T12:45:49.649Z,99.90
2022-11-05T12:48:45.424Z,99.90
2022-11-05T12:51:29.159Z,99.90
2022-11-05T12:54:20.177Z,99.90
2022-11-05T12:56:58.223Z,99.90
2022-11-05T12:59:34.269Z,99.90
2022-11-05T13:02:13.459Z,99.90
2022-11-05T13:04:48.984Z,99.90
2022-11-05T13:07:25.730Z,99.90
2022-11-05T13:10:00.015Z,99.90
2022-11-05T13:12:38.105Z,99.90
2022-11-05T13:15:27.070Z,99.90
2022-11-05T13:18:01.195Z,99.90
2022-11-05T13:20:35.031Z,99.90
2022-11-05T13:23:16.242Z,99.90
2022-11-05T13:25:52.302Z,99.90
2022-11-05T13:28:35.622Z,99.90
2022-11-05T13:31:08.612Z,99.90
2022-11-05T13:33:42.075Z,99.90
2022-11-05T13:36:28.633Z,99.90
2022-11-05T13:39:09.251Z,99.90
2022-11-05T13:41:57.395Z,99.90
2022-11-05T13:44:52.968Z,99.90
2022-11-05T13:47:39.720Z,99.90
2022-11-05T13:50:31.581Z,99.90
2022-11-05T13:53:29.968Z,99.90
2022-11-05T13:56:05.357Z,99.90
2022-11-05T13:58:47.954Z,99.90
2022-11-05T14:01:32.921Z,99.90
2022-11-05T14:04:03.487Z,99.90
2022-11-05T14:06:36.923Z,99.90
2022-11-05T14:09:14.143Z,99.90
2022-11-05T14:11:51.147Z,99.90
2022-11-05T14:14:25.478Z,99.90
2022-11-05T14:17:15.932Z,99.90
2022-11-05T14:20:25.851Z,99.90
2022-11-05T14:22:56.790Z,99.90
2022-11-05T14:26:04.051Z,99.90
2022-11-05T14:28:44.934Z,99.90
2022-11-05T14:32:12.046Z,99.50
2022-11-05T14:34:51.303Z,99.90
2022-11-05T14:37:27.294Z,99.90
2022-11-05T14:39:58.223Z,99.90
2022-11-05T14:42:31.171Z,99.90
2022-11-05T14:45:30.325Z,99.90
2022-11-05T14:48:02.404Z,99.90
2022-11-05T14:50:42.042Z,99.90
2022-11-05T14:53:27.987Z,99.90
2022-11-05T14:56:05.713Z,99.90
2022-11-05T14:58:38.944Z,99.90
2022-11-05T15:01:10.691Z,99.90
2022-11-05T15:04:04.014Z,98.50
2022-11-05T15:06:38.529Z,96.10
2022-11-05T15:09:31.950Z,95.40
2022-11-05T15:12:14.282Z,85.10
2022-11-05T15:14:56.148Z,89.80
2022-11-05T15:17:30.783Z,91.00
2022-11-05T15:20:11.220Z,93.60
2022-11-05T15:22:46.335Z,95.10
2022-11-05T15:25:20.746Z,98.60
2022-11-05T15:28:01.547Z,99.40
2022-11-05T15:30:31.527Z,99.90
2022-11-05T15:33:13.208Z,99.90
2022-11-05T15:35:44.514Z,99.90
2022-11-05T15:38:35.972Z,99.90
2022-11-05T15:41:08.740Z,99.90
2022-11-05T15:43:48.051Z,99.90
2022-11-05T15:46:20.697Z,99.90
2022-11-05T15:48:57.260Z,99.90
2022-11-05T15:51:29.149Z,99.90
2022-11-05T15:56:58.660Z,99.90
2022-11-05T15:59:32.380Z,99.90
2022-11-05T16:02:08.856Z,99.90
2022-11-05T16:04:39.825Z,99.90
2022-11-05T16:07:12.305Z,99.90
2022-11-05T16:09:53.696Z,99.90
2022-11-05T16:12:34.298Z,99.90
2022-11-05T16:15:23.302Z,99.90
2022-11-05T16:17:57.916Z,99.90
2022-11-05T16:20:32.671Z,99.90
2022-11-05T16:23:04.480Z,99.90
2022-11-05T16:25:47.264Z,99.90
2022-11-05T16:28:26.367Z,99.90
2022-11-05T16:30:58.516Z,99.90
2022-11-05T16:33:34.360Z,99.90
2022-11-05T16:36:04.433Z,99.90
2022-11-05T16:38:35.395Z,99.90
2022-11-05T16:41:08.149Z,99.90
2022-11-05T16:43:38.569Z,99.90
2022-11-05T16:46:09.482Z,99.90
2022-11-05T16:48:39.870Z,99.90
2022-11-05T16:51:12.152Z,99.90
2022-11-05T16:53:44.633Z,99.90
2022-11-05T16:56:22.969Z,99.90
2022-11-05T16:58:53.985Z,99.90
2022-11-05T17:01:26.964Z,99.90
2022-11-05T17:03:59.094Z,99.90
2022-11-05T17:06:29.014Z,99.90
2022-11-05T17:08:59.294Z,99.90
2022-11-05T17:11:32.701Z,99.90
2022-11-05T17:14:02.957Z,99.90
2022-11-05T17:16:32.917Z,99.90
2022-11-05T17:19:03.241Z,99.90
2022-11-05T17:21:33.758Z,98.10
2022-11-05T17:24:05.509Z,96.40
2022-11-05T17:26:38.708Z,90.90
2022-11-05T17:29:09.253Z,83.10
2022-11-05T17:31:41.613Z,76.90
2022-11-05T17:34:12.515Z,76.10
2022-11-05T17:36:43.478Z,65.10
2022-11-05T17:39:16.958Z,72.00
2022-11-05T17:41:50.049Z,68.70
2022-11-05T17:44:20.663Z,62.90
2022-11-05T17:46:51.274Z,65.40
2022-11-05T17:49:21.280Z,67.40
2022-11-05T17:51:51.533Z,68.10
2022-11-05T17:54:23.011Z,74.20
2022-11-05T17:56:57.751Z,78.50
2022-11-05T17:59:31.168Z,82.20
2022-11-05T18:02:01.491Z,77.40
2022-11-05T18:04:32.641Z,85.20
2022-11-05T18:07:03.371Z,85.00
2022-11-05T18:09:34.361Z,85.80
2022-11-05T18:12:07.802Z,84.50
2022-11-05T18:14:38.195Z,87.60
2022-11-05T18:17:08.879Z,89.20
2022-11-05T18:19:40.263Z,88.50
2022-11-05T18:22:10.352Z,90.10
2022-11-05T18:24:41.008Z,91.30
2022-11-05T18:27:13.797Z,93.60
2022-11-05T18:29:44.349Z,95.80
2022-11-05T18:32:14.579Z,94.70
2022-11-05T18:34:45.514Z,99.00
2022-11-05T18:37:15.504Z,96.90
2022-11-05T18:39:46.976Z,95.40
2022-11-05T18:42:19.641Z,92.30
2022-11-05T18:44:50.362Z,93.10
2022-11-05T18:47:20.611Z,93.60
2022-11-05T18:49:51.054Z,90.70
2022-11-05T18:52:20.914Z,92.00
2022-11-05T18:54:51.157Z,93.00
2022-11-05T18:57:24.678Z,96.40
2022-11-05T18:59:55.293Z,97.60
2022-11-05T19:02:26.343Z,97.00
2022-11-05T19:07:47.329Z,99.90
2022-11-05T19:10:17.589Z,99.90
2022-11-05T19:12:51.359Z,99.90
2022-11-05T19:15:21.778Z,99.90
2022-11-05T19:17:52.127Z,99.90
2022-11-05T19:20:22.248Z,99.90
2022-11-05T19:22:52.746Z,99.90
2022-11-05T19:25:22.785Z,99.90
2022-11-05T19:27:58.478Z,99.90
2022-11-05T19:30:29.115Z,99.90
2022-11-05T19:33:00.080Z,99.90
2022-11-05T19:35:30.041Z,99.90
2022-11-05T19:38:00.745Z,99.90
2022-11-05T19:40:31.052Z,99.90
2022-11-05T19:43:04.500Z,99.90
2022-11-05T19:45:49.823Z,99.90
2022-11-05T19:48:21.400Z,99.90
2022-11-05T19:50:51.544Z,99.90
2022-11-05T19:53:22.362Z,99.90
2022-11-05T19:55:52.535Z,99.90
2022-11-05T19:58:26.012Z,99.90
2022-11-05T20:00:58.700Z,99.90
2022-11-05T20:03:29.640Z,99.90
2022-11-05T20:06:11.536Z,99.90
2022-11-05T20:08:59.848Z,99.90
2022-11-05T20:11:32.446Z,99.90
2022-11-05T20:14:05.106Z,99.90
2022-11-05T20:16:38.209Z,99.90
2022-11-05T20:19:09.580Z,99.90
2022-11-05T20:21:39.805Z,99.90
2022-11-05T20:24:11.200Z,99.90
2022-11-05T20:26:42.371Z,99.90
2022-11-05T20:29:15.606Z,99.90
2022-11-05T20:31:45.701Z,99.90
2022-11-05T20:34:15.642Z,99.90
2022-11-05T20:36:45.837Z,99.90
2022-11-05T20:39:15.938Z,99.90
2022-11-05T20:41:46.563Z,99.90
2022-11-05T20:44:19.091Z,99.90
2022-11-05T20:46:49.288Z,99.90
2022-11-05T20:49:24.922Z,99.90
2022-11-05T20:51:56.036Z,99.90
2022-11-05T20:54:26.840Z,99.90
2022-11-05T20:56:57.031Z,99.90
2022-11-05T20:59:29.549Z,99.90
2022-11-05T21:02:00.081Z,99.90
2022-11-05T21:04:30.031Z,99.90
2022-11-05T21:07:01.152Z,99.90
2022-11-05T21:09:31.254Z,99.90
2022-11-05T21:12:14.174Z,99.90
2022-11-05T21:14:47.133Z,99.90
2022-11-05T21:17:17.607Z,99.90
2022-11-05T21:19:47.638Z,99.90
2022-11-05T21:22:18.432Z,99.90
2022-11-05T21:24:48.299Z,99.90
2022-11-05T21:27:18.500Z,99.90
2022-11-05T21:29:51.019Z,99.90
2022-11-05T21:32:21.360Z,99.90
2022-11-05T21:34:51.239Z,99.90
2022-11-05T21:37:22.258Z,99.90
2022-11-05T21:39:52.438Z,99.90
2022-11-05T21:42:23.055Z,99.90
2022-11-05T21:45:00.178Z,99.90
2022-11-05T21:47:31.520Z,99.90
2022-11-05T21:50:03.814Z,99.90
2022-11-05T21:52:46.535Z,99.90
2022-11-05T21:55:38.362Z,99.90
2022-11-05T21:58:28.782Z,99.90
2022-11-05T22:01:02.673Z,99.90
2022-11-05T22:03:32.582Z,99.90
2022-11-05T22:06:02.933Z,99.90
2022-11-05T22:08:32.816Z,99.90
2022-11-05T22:11:06.378Z,99.90
2022-11-05T22:13:36.343Z,99.90
2022-11-05T22:16:10.335Z,99.90
2022-11-05T22:18:40.220Z,99.90
2022-11-05T22:21:10.497Z,99.90
2022-11-05T22:23:40.425Z,99.90
2022-11-05T22:26:10.566Z,99.90
2022-11-05T22:28:40.884Z,99.90
2022-11-05T22:31:18.409Z,99.90
2022-11-05T22:33:48.346Z,99.90
2022-11-05T22:36:18.949Z,99.90
2022-11-05T22:38:48.850Z,99.90
2022-11-05T22:41:22.347Z,99.90
2022-11-05T22:43:52.574Z,99.90
2022-11-05T22:46:27.816Z,99.90
2022-11-05T22:48:58.325Z,99.90
2022-11-05T22:51:31.452Z,99.90
2022-11-05T22:54:01.911Z,99.90
2022-11-05T22:56:35.370Z,99.90
2022-11-05T22:59:05.938Z,99.90
2022-11-05T23:01:39.254Z,99.90
2022-11-05T23:04:10.349Z,99.90
2022-11-05T23:06:53.171Z,99.90
2022-11-05T23:09:37.811Z,99.90
2022-11-05T23:12:22.457Z,99.90
2022-11-05T23:14:52.651Z,99.90
2022-11-05T23:17:38.514Z,99.90
2022-11-05T23:20:23.570Z,99.90
2022-11-05T23:23:06.750Z,99.90
2022-11-05T23:25:36.694Z,99.90
2022-11-05T23:28:13.879Z,99.90
2022-11-05T23:30:59.044Z,99.90
2022-11-05T23:33:35.313Z,99.90
2022-11-05T23:36:18.417Z,99.90
2022-11-05T23:38:48.558Z,99.90
2022-11-05T23:41:31.603Z,99.90
2022-11-05T23:44:13.938Z,99.90
2022-11-05T23:46:56.855Z,99.90
2022-11-05T23:49:29.864Z,99.90
2022-11-05T23:52:00.412Z,99.90
2022-11-05T23:54:30.320Z,99.90
2022-11-05T23:57:00.986Z,99.90
2022-11-05T23:59:30.940Z,99.90
